sensor_id;sensor_type;location;lat;lon;timestamp;pressure;altitude;pressure_sealevel;temperature;humidity
47240;BME280;32978;53.586;10.052;2023-04-08T00:03:09;102288.75;;;6.52;100.00
47240;BME280;32978;53.586;10.052;2023-04-08T00:08:06;102280.09;;;6.34;100.00
47240;BME280;32978;53.586;10.052;2023-04-08T00:13:03;102292.06;;;6.55;100.00
47240;BME280;32978;53.586;10.052;2023-04-08T00:17:59;102301.13;;;6.43;100.00
47240;BME280;32978;53.586;10.052;2023-04-08T00:22:56;102292.97;;;6.43;100.00
47240;BME280;32978;53.586;10.052;2023-04-08T00:27:52;102303.41;;;6.51;100.00
47240;BME280;32978;53.586;10.052;2023-04-08T00:32:49;102294.44;;;6.29;100.00
47240;BME280;32978;53.586;10.052;2023-04-08T00:37:46;102292.41;;;6.41;100.00
47240;BME280;32978;53.586;10.052;2023-04-08T00:42:43;102304.13;;;6.25;100.00
47240;BME280;32978;53.586;10.052;2023-04-08T00:47:39;102304.78;;;6.32;100.00
47240;BME280;32978;53.586;10.052;2023-04-08T00:52:36;102305.31;;;6.51;100.00
47240;BME280;32978;53.586;10.052;2023-04-08T00:57:33;102299.00;;;6.45;100.00
47240;BME280;32978;53.586;10.052;2023-04-08T01:02:44;102303.75;;;6.38;100.00
47240;BME280;32978;53.586;10.052;2023-04-08T01:07:46;102310.03;;;6.39;100.00
47240;BME280;32978;53.586;10.052;2023-04-08T01:12:54;102308.19;;;6.44;100.00
47240;BME280;32978;53.586;10.052;2023-04-08T01:17:54;102311.25;;;6.48;100.00
47240;BME280;32978;53.586;10.052;2023-04-08T01:23:20;102301.44;;;6.47;100.00
47240;BME280;32978;53.586;10.052;2023-04-08T01:28:20;102304.91;;;6.42;100.00
47240;BME280;32978;53.586;10.052;2023-04-08T01:33:18;102300.84;;;6.23;100.00
47240;BME280;32978;53.586;10.052;2023-04-08T01:38:17;102306.22;;;6.40;100.00
47240;BME280;32978;53.586;10.052;2023-04-08T01:43:16;102299.69;;;6.19;100.00
47240;BME280;32978;53.586;10.052;2023-04-08T01:48:13;102299.22;;;6.44;100.00
47240;BME280;32978;53.586;10.052;2023-04-08T01:53:11;102294.44;;;6.29;100.00
47240;BME280;32978;53.586;10.052;2023-04-08T01:58:11;102290.03;;;6.28;100.00
47240;BME280;32978;53.586;10.052;2023-04-08T02:03:11;102280.94;;;6.00;100.00
47240;BME280;32978;53.586;10.052;2023-04-08T02:08:08;102290.81;;;5.89;100.00
47240;BME280;32978;53.586;10.052;2023-04-08T02:13:04;102285.47;;;6.11;100.00
47240;BME280;32978;53.586;10.052;2023-04-08T02:18:15;102289.38;;;5.99;100.00
47240;BME280;32978;53.586;10.052;2023-04-08T02:23:19;102280.44;;;6.20;100.00
47240;BME280;32978;53.586;10.052;2023-04-08T02:28:17;102280.63;;;6.14;100.00
47240;BME280;32978;53.586;10.052;2023-04-08T02:33:17;102282.25;;;6.15;100.00
47240;BME280;32978;53.586;10.052;2023-04-08T02:38:14;102279.13;;;6.23;100.00
47240;BME280;32978;53.586;10.052;2023-04-08T02:43:11;102281.59;;;6.07;100.00
47240;BME280;32978;53.586;10.052;2023-04-08T02:48:07;102285.22;;;6.13;100.00
47240;BME280;32978;53.586;10.052;2023-04-08T02:53:04;102295.63;;;5.99;100.00
47240;BME280;32978;53.586;10.052;2023-04-08T02:58:00;102295.63;;;5.99;100.00
47240;BME280;32978;53.586;10.052;2023-04-08T03:02:57;102285.88;;;6.03;100.00
47240;BME280;32978;53.586;10.052;2023-04-08T03:07:53;102296.75;;;6.03;100.00
47240;BME280;32978;53.586;10.052;2023-04-08T03:12:50;102296.09;;;6.13;100.00
47240;BME280;32978;53.586;10.052;2023-04-08T03:17:47;102302.16;;;6.03;100.00
47240;BME280;32978;53.586;10.052;2023-04-08T03:22:43;102308.59;;;5.80;100.00
47240;BME280;32978;53.586;10.052;2023-04-08T03:27:40;102324.69;;;5.87;100.00
47240;BME280;32978;53.586;10.052;2023-04-08T03:32:36;102320.41;;;5.91;100.00
47240;BME280;32978;53.586;10.052;2023-04-08T03:37:33;102328.31;;;5.76;100.00
47240;BME280;32978;53.586;10.052;2023-04-08T03:42:29;102335.06;;;5.90;100.00
47240;BME280;32978;53.586;10.052;2023-04-08T03:47:26;102335.97;;;5.79;100.00
47240;BME280;32978;53.586;10.052;2023-04-08T03:52:23;102337.41;;;5.98;100.00
47240;BME280;32978;53.586;10.052;2023-04-08T03:57:20;102335.97;;;5.79;100.00
47240;BME280;32978;53.586;10.052;2023-04-08T04:02:16;102348.88;;;5.72;100.00
47240;BME280;32978;53.586;10.052;2023-04-08T04:07:13;102349.19;;;5.75;100.00
47240;BME280;32978;53.586;10.052;2023-04-08T04:12:09;102352.41;;;5.72;100.00
47240;BME280;32978;53.586;10.052;2023-04-08T04:17:06;102353.78;;;5.58;100.00
47240;BME280;32978;53.586;10.052;2023-04-08T04:22:02;102359.06;;;5.64;100.00
47240;BME280;32978;53.586;10.052;2023-04-08T04:26:58;102356.75;;;5.56;100.00
47240;BME280;32978;53.586;10.052;2023-04-08T04:31:55;102361.06;;;5.69;100.00
47240;BME280;32978;53.586;10.052;2023-04-08T04:36:51;102361.41;;;5.89;100.00
47240;BME280;32978;53.586;10.052;2023-04-08T04:41:48;102370.59;;;5.43;100.00
47240;BME280;32978;53.586;10.052;2023-04-08T04:46:44;102371.69;;;5.42;100.00
47240;BME280;32978;53.586;10.052;2023-04-08T04:51:41;102384.63;;;5.68;100.00
47240;BME280;32978;53.586;10.052;2023-04-08T04:56:37;102390.19;;;5.74;100.00
47240;BME280;32978;53.586;10.052;2023-04-08T05:01:34;102392.31;;;5.72;100.00
47240;BME280;32978;53.586;10.052;2023-04-08T05:06:30;102398.97;;;5.81;100.00
47240;BME280;32978;53.586;10.052;2023-04-08T05:11:27;102402.16;;;5.78;100.00
47240;BME280;32978;53.586;10.052;2023-04-08T05:16:23;102393.94;;;5.73;100.00
47240;BME280;32978;53.586;10.052;2023-04-08T05:21:20;102398.41;;;5.79;100.00
47240;BME280;32978;53.586;10.052;2023-04-08T05:26:16;102398.41;;;5.79;100.00
47240;BME280;32978;53.586;10.052;2023-04-08T05:31:16;102402.13;;;5.89;100.00
47240;BME280;32978;53.586;10.052;2023-04-08T05:36:13;102410.47;;;6.00;100.00
47240;BME280;32978;53.586;10.052;2023-04-08T05:41:10;102413.00;;;5.89;100.00
47240;BME280;32978;53.586;10.052;2023-04-08T05:46:07;102413.81;;;5.90;100.00
47240;BME280;32978;53.586;10.052;2023-04-08T05:51:04;102419.22;;;5.90;100.00
47240;BME280;32978;53.586;10.052;2023-04-08T05:56:01;102421.56;;;5.69;100.00
47240;BME280;32978;53.586;10.052;2023-04-08T06:00:57;102436.91;;;5.76;100.00
47240;BME280;32978;53.586;10.052;2023-04-08T06:05:54;102429.13;;;5.67;100.00
47240;BME280;32978;53.586;10.052;2023-04-08T06:10:51;102430.38;;;5.77;100.00
47240;BME280;32978;53.586;10.052;2023-04-08T06:15:47;102440.66;;;5.75;100.00
47240;BME280;32978;53.586;10.052;2023-04-08T06:20:45;102448.72;;;5.69;100.00
47240;BME280;32978;53.586;10.052;2023-04-08T06:25:41;102446.28;;;5.85;100.00
47240;BME280;32978;53.586;10.052;2023-04-08T06:30:38;102445.81;;;5.88;100.00
47240;BME280;32978;53.586;10.052;2023-04-08T06:35:34;102457.63;;;5.82;100.00
47240;BME280;32978;53.586;10.052;2023-04-08T06:40:32;102460.16;;;6.00;100.00
47240;BME280;32978;53.586;10.052;2023-04-08T06:45:29;102469.16;;;5.89;100.00
47240;BME280;32978;53.586;10.052;2023-04-08T06:50:25;102471.88;;;5.89;100.00
47240;BME280;32978;53.586;10.052;2023-04-08T06:55:22;102477.50;;;5.70;100.00
47240;BME280;32978;53.586;10.052;2023-04-08T07:00:18;102483.19;;;5.98;100.00
47240;BME280;32978;53.586;10.052;2023-04-08T07:05:14;102487.31;;;6.00;100.00
47240;BME280;32978;53.586;10.052;2023-04-08T07:10:12;102493.31;;;6.02;100.00
47240;BME280;32978;53.586;10.052;2023-04-08T07:15:08;102495.47;;;5.88;100.00
47240;BME280;32978;53.586;10.052;2023-04-08T07:20:06;102491.13;;;5.99;100.00
47240;BME280;32978;53.586;10.052;2023-04-08T07:25:02;102490.88;;;5.89;100.00
47240;BME280;32978;53.586;10.052;2023-04-08T07:29:59;102496.41;;;6.23;100.00
47240;BME280;32978;53.586;10.052;2023-04-08T07:34:58;102496.09;;;6.36;100.00
47240;BME280;32978;53.586;10.052;2023-04-08T07:39:54;102499.59;;;5.91;100.00
47240;BME280;32978;53.586;10.052;2023-04-08T07:44:51;102503.97;;;6.21;100.00
47240;BME280;32978;53.586;10.052;2023-04-08T07:49:47;102511.91;;;6.22;100.00
47240;BME280;32978;53.586;10.052;2023-04-08T07:54:44;102523.50;;;6.18;100.00
47240;BME280;32978;53.586;10.052;2023-04-08T07:59:40;102527.84;;;6.19;100.00
47240;BME280;32978;53.586;10.052;2023-04-08T08:04:37;102537.06;;;6.18;100.00
47240;BME280;32978;53.586;10.052;2023-04-08T08:09:34;102539.66;;;6.13;100.00
47240;BME280;32978;53.586;10.052;2023-04-08T08:14:31;102549.34;;;6.20;100.00
47240;BME280;32978;53.586;10.052;2023-04-08T08:19:27;102539.38;;;6.26;100.00
47240;BME280;32978;53.586;10.052;2023-04-08T08:24:24;102543.63;;;6.22;100.00
47240;BME280;32978;53.586;10.052;2023-04-08T08:29:21;102542.28;;;6.36;100.00
47240;BME280;32978;53.586;10.052;2023-04-08T08:34:17;102549.44;;;6.42;100.00
47240;BME280;32978;53.586;10.052;2023-04-08T08:39:14;102551.03;;;6.72;100.00
47240;BME280;32978;53.586;10.052;2023-04-08T08:44:10;102552.84;;;6.83;100.00
47240;BME280;32978;53.586;10.052;2023-04-08T08:49:08;102550.88;;;6.95;100.00
47240;BME280;32978;53.586;10.052;2023-04-08T08:54:04;102560.94;;;6.95;100.00
47240;BME280;32978;53.586;10.052;2023-04-08T08:59:01;102563.81;;;6.88;100.00
47240;BME280;32978;53.586;10.052;2023-04-08T09:09:05;102563.81;;;6.71;100.00
47240;BME280;32978;53.586;10.052;2023-04-08T09:14:25;102558.94;;;7.24;100.00
47240;BME280;32978;53.586;10.052;2023-04-08T09:19:21;102567.22;;;7.34;100.00
47240;BME280;32978;53.586;10.052;2023-04-08T09:24:27;102583.06;;;7.21;100.00
47240;BME280;32978;53.586;10.052;2023-04-08T09:29:24;102578.94;;;7.35;100.00
47240;BME280;32978;53.586;10.052;2023-04-08T09:34:25;102578.22;;;7.45;100.00
47240;BME280;32978;53.586;10.052;2023-04-08T09:39:22;102581.50;;;7.64;100.00
47240;BME280;32978;53.586;10.052;2023-04-08T09:44:20;102589.84;;;7.57;100.00
47240;BME280;32978;53.586;10.052;2023-04-08T09:49:24;102589.41;;;7.65;100.00
47240;BME280;32978;53.586;10.052;2023-04-08T09:54:31;102590.44;;;7.59;100.00
47240;BME280;32978;53.586;10.052;2023-04-08T09:59:33;102595.66;;;7.66;100.00
47240;BME280;32978;53.586;10.052;2023-04-08T10:04:34;102591.94;;;7.50;100.00
47240;BME280;32978;53.586;10.052;2023-04-08T10:09:33;102595.88;;;7.59;100.00
47240;BME280;32978;53.586;10.052;2023-04-08T10:14:30;102591.63;;;7.90;100.00
47240;BME280;32978;53.586;10.052;2023-04-08T10:19:39;102591.34;;;7.87;100.00
47240;BME280;32978;53.586;10.052;2023-04-08T10:24:36;102592.88;;;7.61;100.00
47240;BME280;32978;53.586;10.052;2023-04-08T10:29:33;102591.88;;;7.67;100.00
47240;BME280;32978;53.586;10.052;2023-04-08T10:34:29;102591.38;;;7.70;100.00
47240;BME280;32978;53.586;10.052;2023-04-08T10:39:26;102592.69;;;7.67;100.00
47240;BME280;32978;53.586;10.052;2023-04-08T10:44:25;102602.38;;;7.58;100.00
47240;BME280;32978;53.586;10.052;2023-04-08T10:49:31;102600.22;;;7.60;100.00
47240;BME280;32978;53.586;10.052;2023-04-08T10:54:28;102609.97;;;7.56;100.00
47240;BME280;32978;53.586;10.052;2023-04-08T10:59:29;102602.59;;;7.73;100.00
47240;BME280;32978;53.586;10.052;2023-04-08T11:04:27;102606.56;;;7.66;100.00
47240;BME280;32978;53.586;10.052;2023-04-08T11:09:23;102612.91;;;7.32;100.00
47240;BME280;32978;53.586;10.052;2023-04-08T11:14:20;102608.41;;;7.60;100.00
47240;BME280;32978;53.586;10.052;2023-04-08T11:19:18;102607.88;;;7.63;100.00
47240;BME280;32978;53.586;10.052;2023-04-08T11:24:15;102617.28;;;7.72;100.00
47240;BME280;32978;53.586;10.052;2023-04-08T11:29:12;102608.69;;;7.80;100.00
47240;BME280;32978;53.586;10.052;2023-04-08T11:34:21;102611.69;;;7.62;100.00
47240;BME280;32978;53.586;10.052;2023-04-08T11:39:21;102602.59;;;7.73;100.00
47240;BME280;32978;53.586;10.052;2023-04-08T11:44:18;102602.72;;;7.84;100.00
47240;BME280;32978;53.586;10.052;2023-04-08T11:49:14;102608.09;;;7.78;100.00
47240;BME280;32978;53.586;10.052;2023-04-08T11:54:28;102597.59;;;7.87;100.00
47240;BME280;32978;53.586;10.052;2023-04-08T11:59:24;102600.28;;;8.09;100.00
47240;BME280;32978;53.586;10.052;2023-04-08T12:04:24;102611.25;;;8.14;100.00
47240;BME280;32978;53.586;10.052;2023-04-08T12:09:21;102614.56;;;7.94;100.00
47240;BME280;32978;53.586;10.052;2023-04-08T12:14:17;102616.97;;;8.13;100.00
47240;BME280;32978;53.586;10.052;2023-04-08T12:19:14;102617.34;;;8.21;100.00
47240;BME280;32978;53.586;10.052;2023-04-08T12:24:10;102620.06;;;8.21;100.00
47240;BME280;32978;53.586;10.052;2023-04-08T12:29:07;102627.41;;;8.43;100.00
47240;BME280;32978;53.586;10.052;2023-04-08T12:34:06;102615.88;;;8.36;100.00
47240;BME280;32978;53.586;10.052;2023-04-08T12:39:03;102619.88;;;7.84;100.00
47240;BME280;32978;53.586;10.052;2023-04-08T12:44:00;102628.00;;;8.01;100.00
47240;BME280;32978;53.586;10.052;2023-04-08T12:48:56;102622.81;;;7.99;100.00
47240;BME280;32978;53.586;10.052;2023-04-08T12:54:01;102628.16;;;8.16;100.00
47240;BME280;32978;53.586;10.052;2023-04-08T12:58:59;102626.09;;;8.01;100.00
47240;BME280;32978;53.586;10.052;2023-04-08T13:03:56;102621.53;;;8.07;100.00
47240;BME280;32978;53.586;10.052;2023-04-08T13:08:53;102637.50;;;8.42;100.00
47240;BME280;32978;53.586;10.052;2023-04-08T13:13:50;102628.56;;;8.47;100.00
47240;BME280;32978;53.586;10.052;2023-04-08T13:18:46;102633.56;;;8.33;100.00
47240;BME280;32978;53.586;10.052;2023-04-08T13:23:42;102640.91;;;7.89;100.00
47240;BME280;32978;53.586;10.052;2023-04-08T13:28:39;102636.38;;;7.94;100.00
47240;BME280;32978;53.586;10.052;2023-04-08T13:33:49;102635.66;;;8.04;100.00
47240;BME280;32978;53.586;10.052;2023-04-08T13:38:45;102641.72;;;8.11;100.00
47240;BME280;32978;53.586;10.052;2023-04-08T13:43:42;102631.91;;;8.32;100.00
47240;BME280;32978;53.586;10.052;2023-04-08T13:48:38;102630.06;;;8.38;100.00
47240;BME280;32978;53.586;10.052;2023-04-08T13:53:35;102628.06;;;8.06;100.00
47240;BME280;32978;53.586;10.052;2023-04-08T13:58:31;102635.34;;;8.22;100.00
47240;BME280;32978;53.586;10.052;2023-04-08T14:03:28;102633.19;;;8.02;100.00
47240;BME280;32978;53.586;10.052;2023-04-08T14:08:24;102627.47;;;8.04;100.00
47240;BME280;32978;53.586;10.052;2023-04-08T14:13:21;102636.47;;;8.05;100.00
47240;BME280;32978;53.586;10.052;2023-04-08T14:18:18;102633.88;;;7.93;100.00
47240;BME280;32978;53.586;10.052;2023-04-08T14:23:15;102631.72;;;7.95;100.00
47240;BME280;32978;53.586;10.052;2023-04-08T14:28:12;102637.06;;;7.85;100.00
47240;BME280;32978;53.586;10.052;2023-04-08T14:33:08;102641.47;;;7.91;100.00
47240;BME280;32978;53.586;10.052;2023-04-08T14:38:04;102636.09;;;7.74;100.00
47240;BME280;32978;53.586;10.052;2023-04-08T14:43:01;102628.94;;;7.90;100.00
47240;BME280;32978;53.586;10.052;2023-04-08T14:47:58;102640.34;;;7.48;100.00
47240;BME280;32978;53.586;10.052;2023-04-08T14:52:54;102635.41;;;7.45;100.00
47240;BME280;32978;53.586;10.052;2023-04-08T14:57:51;102629.81;;;7.73;100.00
47240;BME280;32978;53.586;10.052;2023-04-08T15:02:47;102639.06;;;7.72;100.00
47240;BME280;32978;53.586;10.052;2023-04-08T15:07:44;102638.41;;;7.65;100.00
47240;BME280;32978;53.586;10.052;2023-04-08T15:12:42;102637.53;;;7.82;100.00
47240;BME280;32978;53.586;10.052;2023-04-08T15:17:38;102632.31;;;7.58;100.00
47240;BME280;32978;53.586;10.052;2023-04-08T15:22:35;102633.47;;;7.62;100.00
47240;BME280;32978;53.586;10.052;2023-04-08T15:27:32;102637.78;;;7.58;100.00
47240;BME280;32978;53.586;10.052;2023-04-08T15:32:29;102638.06;;;7.78;100.00
47240;BME280;32978;53.586;10.052;2023-04-08T15:37:26;102647.09;;;7.84;100.00
47240;BME280;32978;53.586;10.052;2023-04-08T15:42:23;102649.81;;;7.62;100.00
47240;BME280;32978;53.586;10.052;2023-04-08T15:47:19;102651.28;;;7.70;100.00
47240;BME280;32978;53.586;10.052;2023-04-08T15:52:15;102668.28;;;7.60;100.00
47240;BME280;32978;53.586;10.052;2023-04-08T15:57:12;102657.59;;;7.36;100.00
47240;BME280;32978;53.586;10.052;2023-04-08T16:02:10;102666.81;;;7.35;100.00
47240;BME280;32978;53.586;10.052;2023-04-08T16:07:07;102670.47;;;7.41;100.00
47240;BME280;32978;53.586;10.052;2023-04-08T16:12:03;102667.66;;;7.53;100.00
47240;BME280;32978;53.586;10.052;2023-04-08T16:17:00;102664.34;;;7.51;100.00
47240;BME280;32978;53.586;10.052;2023-04-08T16:21:57;102653.59;;;7.61;100.00
47240;BME280;32978;53.586;10.052;2023-04-08T16:26:53;102667.00;;;7.46;100.00
47240;BME280;32978;53.586;10.052;2023-04-08T16:31:49;102662.53;;;7.40;100.00
47240;BME280;32978;53.586;10.052;2023-04-08T16:36:49;102663.28;;;7.18;100.00
47240;BME280;32978;53.586;10.052;2023-04-08T16:41:46;102663.03;;;7.36;100.00
47240;BME280;32978;53.586;10.052;2023-04-08T16:46:43;102679.69;;;7.57;100.00
47240;BME280;32978;53.586;10.052;2023-04-08T16:51:39;102668.41;;;7.48;100.00
47240;BME280;32978;53.586;10.052;2023-04-08T16:56:36;102677.31;;;7.44;100.00
47240;BME280;32978;53.586;10.052;2023-04-08T17:01:32;102671.75;;;7.55;100.00
47240;BME280;32978;53.586;10.052;2023-04-08T17:06:29;102671.59;;;7.28;100.00
47240;BME280;32978;53.586;10.052;2023-04-08T17:11:26;102677.56;;;7.25;100.00
47240;BME280;32978;53.586;10.052;2023-04-08T17:16:23;102670.28;;;7.31;100.00
47240;BME280;32978;53.586;10.052;2023-04-08T17:21:20;102676.75;;;7.25;100.00
47240;BME280;32978;53.586;10.052;2023-04-08T17:26:17;102676.91;;;7.18;100.00
47240;BME280;32978;53.586;10.052;2023-04-08T17:31:13;102681.38;;;7.24;100.00
47240;BME280;32978;53.586;10.052;2023-04-08T17:36:09;102676.75;;;7.08;100.00
47240;BME280;32978;53.586;10.052;2023-04-08T17:41:07;102678.44;;;7.31;100.00
47240;BME280;32978;53.586;10.052;2023-04-08T17:46:04;102684.41;;;7.11;100.00
47240;BME280;32978;53.586;10.052;2023-04-08T17:51:04;102682.91;;;7.20;100.00
47240;BME280;32978;53.586;10.052;2023-04-08T17:56:01;102681.25;;;7.19;100.00
47240;BME280;32978;53.586;10.052;2023-04-08T18:00:58;102678.53;;;7.19;100.00
47240;BME280;32978;53.586;10.052;2023-04-08T18:05:54;102684.47;;;7.16;100.00
47240;BME280;32978;53.586;10.052;2023-04-08T18:10:51;102689.56;;;7.12;100.00
47240;BME280;32978;53.586;10.052;2023-04-08T18:15:47;102694.28;;;7.17;100.00
47240;BME280;32978;53.586;10.052;2023-04-08T18:20:44;102699.72;;;7.17;100.00
47240;BME280;32978;53.586;10.052;2023-04-08T18:25:41;102704.41;;;7.05;100.00
47240;BME280;32978;53.586;10.052;2023-04-08T18:30:39;102703.44;;;7.11;100.00
47240;BME280;32978;53.586;10.052;2023-04-08T18:35:37;102700.94;;;6.92;100.00
47240;BME280;32978;53.586;10.052;2023-04-08T18:40:34;102708.69;;;7.01;100.00
47240;BME280;32978;53.586;10.052;2023-04-08T18:45:30;102712.34;;;7.06;100.00
47240;BME280;32978;53.586;10.052;2023-04-08T18:50:27;102721.91;;;7.09;100.00
47240;BME280;32978;53.586;10.052;2023-04-08T18:55:23;102725.72;;;7.08;100.00
47240;BME280;32978;53.586;10.052;2023-04-08T19:00:20;102732.03;;;6.97;100.00
47240;BME280;32978;53.586;10.052;2023-04-08T19:05:16;102727.50;;;7.02;100.00
47240;BME280;32978;53.586;10.052;2023-04-08T19:10:13;102735.88;;;7.01;100.00
47240;BME280;32978;53.586;10.052;2023-04-08T19:15:09;102739.19;;;7.03;100.00
47240;BME280;32978;53.586;10.052;2023-04-08T19:20:06;102726.19;;;7.05;100.00
47240;BME280;32978;53.586;10.052;2023-04-08T19:25:03;102730.44;;;7.01;100.00
47240;BME280;32978;53.586;10.052;2023-04-08T19:30:00;102735.41;;;7.04;100.00
47240;BME280;32978;53.586;10.052;2023-04-08T19:34:56;102724.13;;;7.12;100.00
47240;BME280;32978;53.586;10.052;2023-04-08T19:39:53;102712.84;;;7.03;100.00
47240;BME280;32978;53.586;10.052;2023-04-08T19:44:49;102709.38;;;7.08;100.00
47240;BME280;32978;53.586;10.052;2023-04-08T19:49:46;102718.38;;;7.08;100.00
47240;BME280;32978;53.586;10.052;2023-04-08T19:54:43;102718.44;;;6.97;100.00
47240;BME280;32978;53.586;10.052;2023-04-08T19:59:39;102722.19;;;6.95;100.00
47240;BME280;32978;53.586;10.052;2023-04-08T20:04:36;102724.84;;;6.90;100.00
47240;BME280;32978;53.586;10.052;2023-04-08T20:09:32;102731.91;;;6.91;100.00
47240;BME280;32978;53.586;10.052;2023-04-08T20:14:29;102731.44;;;6.94;100.00
47240;BME280;32978;53.586;10.052;2023-04-08T20:19:26;102730.66;;;6.82;100.00
47240;BME280;32978;53.586;10.052;2023-04-08T20:24:23;102736.66;;;6.84;100.00
47240;BME280;32978;53.586;10.052;2023-04-08T20:29:20;102739.53;;;6.78;100.00
47240;BME280;32978;53.586;10.052;2023-04-08T20:34:16;102746.41;;;6.80;100.00
47240;BME280;32978;53.586;10.052;2023-04-08T20:39:12;102752.84;;;6.91;100.00
47240;BME280;32978;53.586;10.052;2023-04-08T20:44:09;102744.81;;;6.84;100.00
47240;BME280;32978;53.586;10.052;2023-04-08T20:49:05;102747.09;;;6.87;100.00
47240;BME280;32978;53.586;10.052;2023-04-08T20:54:02;102740.97;;;6.80;100.00
47240;BME280;32978;53.586;10.052;2023-04-08T20:59:00;102737.66;;;6.78;100.00
47240;BME280;32978;53.586;10.052;2023-04-08T21:03:56;102750.19;;;6.79;100.00
47240;BME280;32978;53.586;10.052;2023-04-08T21:08:53;102742.03;;;6.79;100.00
47240;BME280;32978;53.586;10.052;2023-04-08T21:13:49;102747.84;;;6.71;100.00
47240;BME280;32978;53.586;10.052;2023-04-08T21:18:46;102746.88;;;6.77;100.00
47240;BME280;32978;53.586;10.052;2023-04-08T21:23:42;102742.03;;;6.79;100.00
47240;BME280;32978;53.586;10.052;2023-04-08T21:28:39;102737.56;;;6.73;100.00
47240;BME280;32978;53.586;10.052;2023-04-08T21:33:36;102738.63;;;6.72;100.00
47240;BME280;32978;53.586;10.052;2023-04-08T21:38:33;102740.28;;;6.73;100.00
47240;BME280;32978;53.586;10.052;2023-04-08T21:43:29;102743.88;;;6.62;100.00
47240;BME280;32978;53.586;10.052;2023-04-08T21:48:26;102747.38;;;6.74;100.00
47240;BME280;32978;53.586;10.052;2023-04-08T21:53:22;102741.34;;;6.72;100.00
47240;BME280;32978;53.586;10.052;2023-04-08T21:58:19;102747.19;;;6.64;100.00
47240;BME280;32978;53.586;10.052;2023-04-08T22:03:15;102748.53;;;6.78;100.00
47240;BME280;32978;53.586;10.052;2023-04-08T22:08:12;102750.94;;;6.63;100.00
47240;BME280;32978;53.586;10.052;2023-04-08T22:13:10;102748.59;;;6.66;100.00
47240;BME280;32978;53.586;10.052;2023-04-08T22:18:06;102752.44;;;6.70;100.00
47240;BME280;32978;53.586;10.052;2023-04-08T22:23:03;102751.03;;;6.68;100.00
47240;BME280;32978;53.586;10.052;2023-04-08T22:27:59;102743.38;;;6.65;100.00
47240;BME280;32978;53.586;10.052;2023-04-08T22:32:56;102745.72;;;6.73;100.00
47240;BME280;32978;53.586;10.052;2023-04-08T22:37:53;102742.41;;;6.71;100.00
47240;BME280;32978;53.586;10.052;2023-04-08T22:42:49;102737.00;;;6.71;100.00
47240;BME280;32978;53.586;10.052;2023-04-08T22:47:45;102749.31;;;6.62;100.00
47240;BME280;32978;53.586;10.052;2023-04-08T22:52:42;102744.06;;;6.72;100.00
47240;BME280;32978;53.586;10.052;2023-04-08T22:57:38;102749.50;;;6.72;100.00
47240;BME280;32978;53.586;10.052;2023-04-08T23:02:35;102748.31;;;6.68;100.00
47240;BME280;32978;53.586;10.052;2023-04-08T23:07:32;102757.06;;;6.70;100.00
47240;BME280;32978;53.586;10.052;2023-04-08T23:12:29;102747.00;;;6.70;100.00
47240;BME280;32978;53.586;10.052;2023-04-08T23:17:25;102753.28;;;6.71;100.00
47240;BME280;32978;53.586;10.052;2023-04-08T23:22:23;102753.97;;;6.78;100.00
47240;BME280;32978;53.586;10.052;2023-04-08T23:27:19;102752.22;;;6.72;100.00
47240;BME280;32978;53.586;10.052;2023-04-08T23:32:16;102742.41;;;6.71;100.00
47240;BME280;32978;53.586;10.052;2023-04-08T23:37:12;102746.69;;;6.67;100.00
47240;BME280;32978;53.586;10.052;2023-04-08T23:42:09;102746.00;;;6.60;100.00
47240;BME280;32978;53.586;10.052;2023-04-08T23:47:05;102737.75;;;6.55;100.00
47240;BME280;32978;53.586;10.052;2023-04-08T23:52:02;102739.38;;;6.56;100.00
47240;BME280;32978;53.586;10.052;2023-04-08T23:56:59;102743.03;;;6.61;100.00
